sensor_id;sensor_type;location;lat;lon;timestamp;P1;P2;P0
61913;PMS5003;50095;53.336;-1.488;2022-07-23T00:02:25;3;3;
61913;PMS5003;50095;53.336;-1.488;2022-07-23T00:04:52;5;5;
61913;PMS5003;50095;53.336;-1.488;2022-07-23T00:07:20;4;4;
61913;PMS5003;50095;53.336;-1.488;2022-07-23T00:09:47;4;4;
61913;PMS5003;50095;53.336;-1.488;2022-07-23T00:12:15;3;3;
61913;PMS5003;50095;53.336;-1.488;2022-07-23T00:14:42;3;3;
61913;PMS5003;50095;53.336;-1.488;2022-07-23T00:17:10;4;4;
61913;PMS5003;50095;53.336;-1.488;2022-07-23T00:19:37;3;3;
61913;PMS5003;50095;53.336;-1.488;2022-07-23T00:22:05;2;2;
61913;PMS5003;50095;53.336;-1.488;2022-07-23T00:24:32;2;2;
61913;PMS5003;50095;53.336;-1.488;2022-07-23T00:27:00;3;3;
61913;PMS5003;50095;53.336;-1.488;2022-07-23T00:29:28;3;3;
61913;PMS5003;50095;53.336;-1.488;2022-07-23T00:31:56;3;3;
61913;PMS5003;50095;53.336;-1.488;2022-07-23T00:34:23;2;2;
61913;PMS5003;50095;53.336;-1.488;2022-07-23T00:36:51;2;2;
61913;PMS5003;50095;53.336;-1.488;2022-07-23T00:39:18;4;4;
61913;PMS5003;50095;53.336;-1.488;2022-07-23T00:41:46;1;1;
61913;PMS5003;50095;53.336;-1.488;2022-07-23T00:44:14;2;2;
61913;PMS5003;50095;53.336;-1.488;2022-07-23T00:46:45;3;2;
61913;PMS5003;50095;53.336;-1.488;2022-07-23T00:49:13;3;3;
61913;PMS5003;50095;53.336;-1.488;2022-07-23T00:51:40;3;2;
61913;PMS5003;50095;53.336;-1.488;2022-07-23T00:54:08;2;2;
61913;PMS5003;50095;53.336;-1.488;2022-07-23T00:56:37;3;3;
61913;PMS5003;50095;53.336;-1.488;2022-07-23T00:59:05;2;2;
61913;PMS5003;50095;53.336;-1.488;2022-07-23T01:01:33;2;2;
61913;PMS5003;50095;53.336;-1.488;2022-07-23T01:04:01;3;3;
61913;PMS5003;50095;53.336;-1.488;2022-07-23T01:06:30;5;5;
61913;PMS5003;50095;53.336;-1.488;2022-07-23T01:09:02;1;1;
61913;PMS5003;50095;53.336;-1.488;2022-07-23T01:11:30;3;3;
61913;PMS5003;50095;53.336;-1.488;2022-07-23T01:13:59;2;2;
61913;PMS5003;50095;53.336;-1.488;2022-07-23T01:16:35;3;3;
61913;PMS5003;50095;53.336;-1.488;2022-07-23T01:19:03;2;2;
61913;PMS5003;50095;53.336;-1.488;2022-07-23T01:21:30;3;3;
61913;PMS5003;50095;53.336;-1.488;2022-07-23T01:23:59;2;2;
61913;PMS5003;50095;53.336;-1.488;2022-07-23T01:26:26;3;2;
61913;PMS5003;50095;53.336;-1.488;2022-07-23T01:28:54;1;1;
61913;PMS5003;50095;53.336;-1.488;2022-07-23T01:31:22;4;4;
61913;PMS5003;50095;53.336;-1.488;2022-07-23T01:33:49;3;3;
61913;PMS5003;50095;53.336;-1.488;2022-07-23T01:36:17;2;2;
61913;PMS5003;50095;53.336;-1.488;2022-07-23T01:38:44;2;2;
61913;PMS5003;50095;53.336;-1.488;2022-07-23T01:41:12;2;2;
61913;PMS5003;50095;53.336;-1.488;2022-07-23T01:43:40;3;3;
61913;PMS5003;50095;53.336;-1.488;2022-07-23T01:46:07;2;2;
61913;PMS5003;50095;53.336;-1.488;2022-07-23T01:48:35;2;2;
61913;PMS5003;50095;53.336;-1.488;2022-07-23T01:51:03;1;1;
61913;PMS5003;50095;53.336;-1.488;2022-07-23T01:53:30;2;2;
61913;PMS5003;50095;53.336;-1.488;2022-07-23T01:55:58;3;3;
61913;PMS5003;50095;53.336;-1.488;2022-07-23T01:58:25;3;3;
61913;PMS5003;50095;53.336;-1.488;2022-07-23T02:00:54;3;3;
61913;PMS5003;50095;53.336;-1.488;2022-07-23T02:03:22;2;2;
61913;PMS5003;50095;53.336;-1.488;2022-07-23T02:05:50;3;3;
61913;PMS5003;50095;53.336;-1.488;2022-07-23T02:08:17;2;2;
61913;PMS5003;50095;53.336;-1.488;2022-07-23T02:10:45;2;2;
61913;PMS5003;50095;53.336;-1.488;2022-07-23T02:13:13;2;2;
61913;PMS5003;50095;53.336;-1.488;2022-07-23T02:15:40;3;3;
61913;PMS5003;50095;53.336;-1.488;2022-07-23T02:18:08;3;3;
61913;PMS5003;50095;53.336;-1.488;2022-07-23T02:20:36;3;3;
61913;PMS5003;50095;53.336;-1.488;2022-07-23T02:23:04;2;2;
61913;PMS5003;50095;53.336;-1.488;2022-07-23T02:25:32;2;2;
61913;PMS5003;50095;53.336;-1.488;2022-07-23T02:27:59;1;1;
61913;PMS5003;50095;53.336;-1.488;2022-07-23T02:30:26;1;1;
61913;PMS5003;50095;53.336;-1.488;2022-07-23T02:32:54;2;2;
61913;PMS5003;50095;53.336;-1.488;2022-07-23T02:35:21;3;3;
61913;PMS5003;50095;53.336;-1.488;2022-07-23T02:37:49;3;3;
61913;PMS5003;50095;53.336;-1.488;2022-07-23T02:40:17;3;3;
61913;PMS5003;50095;53.336;-1.488;2022-07-23T02:42:44;2;2;
61913;PMS5003;50095;53.336;-1.488;2022-07-23T02:45:12;1;1;
61913;PMS5003;50095;53.336;-1.488;2022-07-23T02:47:39;0;0;
61913;PMS5003;50095;53.336;-1.488;2022-07-23T02:50:07;3;3;
61913;PMS5003;50095;53.336;-1.488;2022-07-23T02:52:35;3;3;
61913;PMS5003;50095;53.336;-1.488;2022-07-23T02:55:03;1;1;
61913;PMS5003;50095;53.336;-1.488;2022-07-23T02:57:32;1;1;
61913;PMS5003;50095;53.336;-1.488;2022-07-23T02:59:59;2;2;
61913;PMS5003;50095;53.336;-1.488;2022-07-23T03:02:27;2;2;
61913;PMS5003;50095;53.336;-1.488;2022-07-23T03:04:54;2;2;
61913;PMS5003;50095;53.336;-1.488;2022-07-23T03:07:22;3;3;
61913;PMS5003;50095;53.336;-1.488;2022-07-23T03:09:49;2;2;
61913;PMS5003;50095;53.336;-1.488;2022-07-23T03:12:17;2;2;
61913;PMS5003;50095;53.336;-1.488;2022-07-23T03:14:43;2;2;
61913;PMS5003;50095;53.336;-1.488;2022-07-23T03:17:11;3;3;
61913;PMS5003;50095;53.336;-1.488;2022-07-23T03:19:39;3;3;
61913;PMS5003;50095;53.336;-1.488;2022-07-23T03:22:07;4;3;
61913;PMS5003;50095;53.336;-1.488;2022-07-23T03:24:34;2;2;
61913;PMS5003;50095;53.336;-1.488;2022-07-23T03:27:02;1;1;
61913;PMS5003;50095;53.336;-1.488;2022-07-23T03:29:29;4;3;
61913;PMS5003;50095;53.336;-1.488;2022-07-23T03:31:57;2;2;
61913;PMS5003;50095;53.336;-1.488;2022-07-23T03:34:24;3;3;
61913;PMS5003;50095;53.336;-1.488;2022-07-23T03:36:52;3;2;
61913;PMS5003;50095;53.336;-1.488;2022-07-23T03:39:19;2;1;
61913;PMS5003;50095;53.336;-1.488;2022-07-23T03:41:47;2;2;
61913;PMS5003;50095;53.336;-1.488;2022-07-23T03:44:15;4;4;
61913;PMS5003;50095;53.336;-1.488;2022-07-23T03:46:42;2;2;
61913;PMS5003;50095;53.336;-1.488;2022-07-23T03:49:10;3;3;
61913;PMS5003;50095;53.336;-1.488;2022-07-23T03:51:38;4;3;
61913;PMS5003;50095;53.336;-1.488;2022-07-23T03:54:04;5;5;
61913;PMS5003;50095;53.336;-1.488;2022-07-23T03:56:32;2;2;
61913;PMS5003;50095;53.336;-1.488;2022-07-23T03:58:59;3;3;
61913;PMS5003;50095;53.336;-1.488;2022-07-23T04:01:26;4;4;
61913;PMS5003;50095;53.336;-1.488;2022-07-23T04:03:54;5;4;
61913;PMS5003;50095;53.336;-1.488;2022-07-23T04:06:22;2;2;
61913;PMS5003;50095;53.336;-1.488;2022-07-23T04:08:49;3;3;
61913;PMS5003;50095;53.336;-1.488;2022-07-23T04:11:17;2;2;
61913;PMS5003;50095;53.336;-1.488;2022-07-23T04:13:45;3;3;
61913;PMS5003;50095;53.336;-1.488;2022-07-23T04:16:12;4;4;
61913;PMS5003;50095;53.336;-1.488;2022-07-23T04:18:39;2;2;
61913;PMS5003;50095;53.336;-1.488;2022-07-23T04:21:07;2;2;
61913;PMS5003;50095;53.336;-1.488;2022-07-23T04:23:35;3;3;
61913;PMS5003;50095;53.336;-1.488;2022-07-23T04:26:02;4;4;
61913;PMS5003;50095;53.336;-1.488;2022-07-23T04:28:30;3;2;
61913;PMS5003;50095;53.336;-1.488;2022-07-23T04:30:58;2;2;
61913;PMS5003;50095;53.336;-1.488;2022-07-23T04:33:26;1;1;
61913;PMS5003;50095;53.336;-1.488;2022-07-23T04:35:54;4;4;
61913;PMS5003;50095;53.336;-1.488;2022-07-23T04:38:21;3;3;
61913;PMS5003;50095;53.336;-1.488;2022-07-23T04:40:49;1;1;
61913;PMS5003;50095;53.336;-1.488;2022-07-23T04:43:16;4;4;
61913;PMS5003;50095;53.336;-1.488;2022-07-23T04:45:44;4;4;
61913;PMS5003;50095;53.336;-1.488;2022-07-23T04:48:11;5;5;
61913;PMS5003;50095;53.336;-1.488;2022-07-23T04:50:39;5;5;
61913;PMS5003;50095;53.336;-1.488;2022-07-23T04:53:07;4;4;
61913;PMS5003;50095;53.336;-1.488;2022-07-23T04:55:35;2;2;
61913;PMS5003;50095;53.336;-1.488;2022-07-23T04:58:02;5;5;
61913;PMS5003;50095;53.336;-1.488;2022-07-23T05:00:30;3;3;
61913;PMS5003;50095;53.336;-1.488;2022-07-23T05:02:57;5;5;
61913;PMS5003;50095;53.336;-1.488;2022-07-23T05:05:25;5;5;
61913;PMS5003;50095;53.336;-1.488;2022-07-23T05:07:52;5;4;
61913;PMS5003;50095;53.336;-1.488;2022-07-23T05:10:19;4;4;
61913;PMS5003;50095;53.336;-1.488;2022-07-23T05:12:47;6;6;
61913;PMS5003;50095;53.336;-1.488;2022-07-23T05:15:14;8;6;
61913;PMS5003;50095;53.336;-1.488;2022-07-23T05:17:41;8;7;
61913;PMS5003;50095;53.336;-1.488;2022-07-23T05:20:08;5;5;
61913;PMS5003;50095;53.336;-1.488;2022-07-23T05:22:37;6;6;
61913;PMS5003;50095;53.336;-1.488;2022-07-23T05:25:05;5;5;
61913;PMS5003;50095;53.336;-1.488;2022-07-23T05:27:33;8;6;
61913;PMS5003;50095;53.336;-1.488;2022-07-23T05:30:00;8;8;
61913;PMS5003;50095;53.336;-1.488;2022-07-23T05:32:28;7;7;
61913;PMS5003;50095;53.336;-1.488;2022-07-23T05:34:57;9;9;
61913;PMS5003;50095;53.336;-1.488;2022-07-23T05:37:25;5;5;
61913;PMS5003;50095;53.336;-1.488;2022-07-23T05:39:52;6;6;
61913;PMS5003;50095;53.336;-1.488;2022-07-23T05:42:20;8;6;
61913;PMS5003;50095;53.336;-1.488;2022-07-23T05:44:47;9;8;
61913;PMS5003;50095;53.336;-1.488;2022-07-23T05:47:15;8;8;
61913;PMS5003;50095;53.336;-1.488;2022-07-23T05:49:42;7;7;
61913;PMS5003;50095;53.336;-1.488;2022-07-23T05:52:10;11;9;
61913;PMS5003;50095;53.336;-1.488;2022-07-23T05:54:37;10;10;
61913;PMS5003;50095;53.336;-1.488;2022-07-23T05:57:05;9;8;
61913;PMS5003;50095;53.336;-1.488;2022-07-23T05:59:32;10;10;
61913;PMS5003;50095;53.336;-1.488;2022-07-23T06:02:02;15;15;
61913;PMS5003;50095;53.336;-1.488;2022-07-23T06:04:29;10;10;
61913;PMS5003;50095;53.336;-1.488;2022-07-23T06:06:57;14;13;
61913;PMS5003;50095;53.336;-1.488;2022-07-23T06:09:24;12;12;
61913;PMS5003;50095;53.336;-1.488;2022-07-23T06:11:51;15;15;
61913;PMS5003;50095;53.336;-1.488;2022-07-23T06:14:19;16;16;
61913;PMS5003;50095;53.336;-1.488;2022-07-23T06:16:46;16;15;
61913;PMS5003;50095;53.336;-1.488;2022-07-23T06:19:13;12;12;
61913;PMS5003;50095;53.336;-1.488;2022-07-23T06:21:41;17;17;
61913;PMS5003;50095;53.336;-1.488;2022-07-23T06:24:08;17;15;
61913;PMS5003;50095;53.336;-1.488;2022-07-23T06:26:35;15;15;
61913;PMS5003;50095;53.336;-1.488;2022-07-23T06:29:03;16;14;
61913;PMS5003;50095;53.336;-1.488;2022-07-23T06:31:30;23;23;
61913;PMS5003;50095;53.336;-1.488;2022-07-23T06:33:57;14;14;
61913;PMS5003;50095;53.336;-1.488;2022-07-23T06:36:24;14;14;
61913;PMS5003;50095;53.336;-1.488;2022-07-23T06:38:51;17;16;
61913;PMS5003;50095;53.336;-1.488;2022-07-23T06:41:19;16;15;
61913;PMS5003;50095;53.336;-1.488;2022-07-23T06:43:46;18;17;
61913;PMS5003;50095;53.336;-1.488;2022-07-23T06:46:13;18;17;
61913;PMS5003;50095;53.336;-1.488;2022-07-23T06:48:41;20;18;
61913;PMS5003;50095;53.336;-1.488;2022-07-23T06:51:08;23;21;
61913;PMS5003;50095;53.336;-1.488;2022-07-23T06:53:36;24;23;
61913;PMS5003;50095;53.336;-1.488;2022-07-23T06:56:04;22;18;
61913;PMS5003;50095;53.336;-1.488;2022-07-23T06:58:31;25;19;
61913;PMS5003;50095;53.336;-1.488;2022-07-23T07:00:58;28;24;
61913;PMS5003;50095;53.336;-1.488;2022-07-23T07:03:25;29;26;
61913;PMS5003;50095;53.336;-1.488;2022-07-23T07:05:53;27;27;
61913;PMS5003;50095;53.336;-1.488;2022-07-23T07:08:20;27;27;
61913;PMS5003;50095;53.336;-1.488;2022-07-23T07:10:47;28;24;
61913;PMS5003;50095;53.336;-1.488;2022-07-23T07:13:15;24;22;
61913;PMS5003;50095;53.336;-1.488;2022-07-23T07:15:43;25;25;
61913;PMS5003;50095;53.336;-1.488;2022-07-23T07:18:10;25;25;
61913;PMS5003;50095;53.336;-1.488;2022-07-23T07:20:37;25;23;
61913;PMS5003;50095;53.336;-1.488;2022-07-23T07:23:04;31;30;
61913;PMS5003;50095;53.336;-1.488;2022-07-23T07:25:32;28;27;
61913;PMS5003;50095;53.336;-1.488;2022-07-23T07:27:59;22;22;
61913;PMS5003;50095;53.336;-1.488;2022-07-23T07:30:26;26;23;
61913;PMS5003;50095;53.336;-1.488;2022-07-23T07:32:54;24;19;
61913;PMS5003;50095;53.336;-1.488;2022-07-23T07:35:21;25;23;
61913;PMS5003;50095;53.336;-1.488;2022-07-23T07:37:49;24;22;
61913;PMS5003;50095;53.336;-1.488;2022-07-23T07:40:17;17;17;
61913;PMS5003;50095;53.336;-1.488;2022-07-23T07:42:45;21;21;
61913;PMS5003;50095;53.336;-1.488;2022-07-23T07:45:13;19;18;
61913;PMS5003;50095;53.336;-1.488;2022-07-23T07:47:40;23;21;
61913;PMS5003;50095;53.336;-1.488;2022-07-23T07:50:08;20;20;
61913;PMS5003;50095;53.336;-1.488;2022-07-23T07:52:36;18;18;
61913;PMS5003;50095;53.336;-1.488;2022-07-23T07:55:05;22;22;
61913;PMS5003;50095;53.336;-1.488;2022-07-23T07:57:35;20;18;
61913;PMS5003;50095;53.336;-1.488;2022-07-23T08:00:03;19;19;
61913;PMS5003;50095;53.336;-1.488;2022-07-23T08:02:39;28;24;
61913;PMS5003;50095;53.336;-1.488;2022-07-23T08:05:08;21;20;
61913;PMS5003;50095;53.336;-1.488;2022-07-23T08:07:36;23;20;
61913;PMS5003;50095;53.336;-1.488;2022-07-23T08:10:03;23;21;
61913;PMS5003;50095;53.336;-1.488;2022-07-23T08:12:37;25;24;
61913;PMS5003;50095;53.336;-1.488;2022-07-23T08:15:06;21;20;
61913;PMS5003;50095;53.336;-1.488;2022-07-23T08:17:35;24;24;
61913;PMS5003;50095;53.336;-1.488;2022-07-23T08:20:03;20;18;
61913;PMS5003;50095;53.336;-1.488;2022-07-23T08:22:48;19;17;
61913;PMS5003;50095;53.336;-1.488;2022-07-23T08:25:20;21;20;
61913;PMS5003;50095;53.336;-1.488;2022-07-23T08:27:49;18;18;
61913;PMS5003;50095;53.336;-1.488;2022-07-23T08:30:17;23;21;
61913;PMS5003;50095;53.336;-1.488;2022-07-23T08:32:47;18;16;
61913;PMS5003;50095;53.336;-1.488;2022-07-23T08:35:17;19;18;
61913;PMS5003;50095;53.336;-1.488;2022-07-23T08:37:44;18;18;
61913;PMS5003;50095;53.336;-1.488;2022-07-23T08:40:12;16;16;
61913;PMS5003;50095;53.336;-1.488;2022-07-23T08:42:39;20;17;
61913;PMS5003;50095;53.336;-1.488;2022-07-23T08:45:07;22;22;
61913;PMS5003;50095;53.336;-1.488;2022-07-23T08:47:36;18;17;
61913;PMS5003;50095;53.336;-1.488;2022-07-23T08:50:05;21;19;
61913;PMS5003;50095;53.336;-1.488;2022-07-23T08:52:35;20;19;
61913;PMS5003;50095;53.336;-1.488;2022-07-23T08:55:04;19;18;
61913;PMS5003;50095;53.336;-1.488;2022-07-23T08:57:33;16;16;
61913;PMS5003;50095;53.336;-1.488;2022-07-23T09:00:02;14;14;
61913;PMS5003;50095;53.336;-1.488;2022-07-23T09:02:30;17;16;
61913;PMS5003;50095;53.336;-1.488;2022-07-23T09:04:58;17;17;
61913;PMS5003;50095;53.336;-1.488;2022-07-23T09:07:25;17;17;
61913;PMS5003;50095;53.336;-1.488;2022-07-23T09:10:04;14;13;
61913;PMS5003;50095;53.336;-1.488;2022-07-23T09:12:33;15;15;
61913;PMS5003;50095;53.336;-1.488;2022-07-23T09:15:05;15;14;
61913;PMS5003;50095;53.336;-1.488;2022-07-23T09:17:38;14;13;
61913;PMS5003;50095;53.336;-1.488;2022-07-23T09:20:08;16;16;
61913;PMS5003;50095;53.336;-1.488;2022-07-23T09:22:38;16;14;
61913;PMS5003;50095;53.336;-1.488;2022-07-23T09:25:11;19;18;
61913;PMS5003;50095;53.336;-1.488;2022-07-23T09:27:45;18;18;
61913;PMS5003;50095;53.336;-1.488;2022-07-23T09:30:16;15;15;
61913;PMS5003;50095;53.336;-1.488;2022-07-23T09:32:44;19;19;
61913;PMS5003;50095;53.336;-1.488;2022-07-23T09:35:43;16;16;
61913;PMS5003;50095;53.336;-1.488;2022-07-23T09:38:12;14;14;
61913;PMS5003;50095;53.336;-1.488;2022-07-23T09:40:40;18;16;
61913;PMS5003;50095;53.336;-1.488;2022-07-23T09:43:07;18;16;
61913;PMS5003;50095;53.336;-1.488;2022-07-23T09:45:36;14;14;
61913;PMS5003;50095;53.336;-1.488;2022-07-23T09:48:11;18;17;
61913;PMS5003;50095;53.336;-1.488;2022-07-23T09:50:40;18;16;
61913;PMS5003;50095;53.336;-1.488;2022-07-23T09:53:09;16;14;
61913;PMS5003;50095;53.336;-1.488;2022-07-23T09:55:50;13;12;
61913;PMS5003;50095;53.336;-1.488;2022-07-23T09:58:22;17;15;
61913;PMS5003;50095;53.336;-1.488;2022-07-23T10:00:50;13;13;
61913;PMS5003;50095;53.336;-1.488;2022-07-23T10:03:18;16;15;
61913;PMS5003;50095;53.336;-1.488;2022-07-23T10:05:47;15;15;
61913;PMS5003;50095;53.336;-1.488;2022-07-23T10:08:17;15;15;
61913;PMS5003;50095;53.336;-1.488;2022-07-23T10:10:45;17;15;
61913;PMS5003;50095;53.336;-1.488;2022-07-23T10:13:14;13;12;
61913;PMS5003;50095;53.336;-1.488;2022-07-23T10:15:41;18;18;
61913;PMS5003;50095;53.336;-1.488;2022-07-23T10:18:10;24;22;
61913;PMS5003;50095;53.336;-1.488;2022-07-23T10:20:38;17;15;
61913;PMS5003;50095;53.336;-1.488;2022-07-23T10:23:10;16;16;
61913;PMS5003;50095;53.336;-1.488;2022-07-23T10:25:48;14;14;
61913;PMS5003;50095;53.336;-1.488;2022-07-23T10:28:27;16;15;
61913;PMS5003;50095;53.336;-1.488;2022-07-23T10:31:17;18;18;
61913;PMS5003;50095;53.336;-1.488;2022-07-23T10:33:56;15;15;
61913;PMS5003;50095;53.336;-1.488;2022-07-23T10:36:31;17;15;
61913;PMS5003;50095;53.336;-1.488;2022-07-23T10:39:08;14;13;
61913;PMS5003;50095;53.336;-1.488;2022-07-23T10:41:41;13;13;
61913;PMS5003;50095;53.336;-1.488;2022-07-23T10:44:10;15;15;
61913;PMS5003;50095;53.336;-1.488;2022-07-23T10:46:56;14;13;
61913;PMS5003;50095;53.336;-1.488;2022-07-23T10:49:26;16;14;
61913;PMS5003;50095;53.336;-1.488;2022-07-23T10:52:27;15;15;
61913;PMS5003;50095;53.336;-1.488;2022-07-23T10:54:56;16;16;
61913;PMS5003;50095;53.336;-1.488;2022-07-23T10:58:06;14;14;
61913;PMS5003;50095;53.336;-1.488;2022-07-23T11:00:35;15;14;
61913;PMS5003;50095;53.336;-1.488;2022-07-23T11:03:03;13;13;
61913;PMS5003;50095;53.336;-1.488;2022-07-23T11:05:53;16;15;
61913;PMS5003;50095;53.336;-1.488;2022-07-23T11:08:21;12;11;
61913;PMS5003;50095;53.336;-1.488;2022-07-23T11:10:50;14;14;
61913;PMS5003;50095;53.336;-1.488;2022-07-23T11:13:38;17;14;
61913;PMS5003;50095;53.336;-1.488;2022-07-23T11:16:13;14;12;
61913;PMS5003;50095;53.336;-1.488;2022-07-23T11:19:02;11;11;
61913;PMS5003;50095;53.336;-1.488;2022-07-23T11:21:50;10;9;
61913;PMS5003;50095;53.336;-1.488;2022-07-23T11:24:20;14;14;
61913;PMS5003;50095;53.336;-1.488;2022-07-23T11:26:54;13;13;
61913;PMS5003;50095;53.336;-1.488;2022-07-23T11:29:55;11;10;
61913;PMS5003;50095;53.336;-1.488;2022-07-23T11:32:24;13;11;
61913;PMS5003;50095;53.336;-1.488;2022-07-23T11:34:57;10;10;
61913;PMS5003;50095;53.336;-1.488;2022-07-23T11:37:28;11;11;
61913;PMS5003;50095;53.336;-1.488;2022-07-23T11:40:00;11;11;
61913;PMS5003;50095;53.336;-1.488;2022-07-23T11:42:29;11;11;
61913;PMS5003;50095;53.336;-1.488;2022-07-23T11:44:57;9;9;
61913;PMS5003;50095;53.336;-1.488;2022-07-23T11:47:25;9;9;
61913;PMS5003;50095;53.336;-1.488;2022-07-23T11:49:54;11;10;
61913;PMS5003;50095;53.336;-1.488;2022-07-23T11:52:23;11;11;
61913;PMS5003;50095;53.336;-1.488;2022-07-23T11:54:52;10;10;
61913;PMS5003;50095;53.336;-1.488;2022-07-23T11:57:23;16;15;
61913;PMS5003;50095;53.336;-1.488;2022-07-23T11:59:53;8;8;
61913;PMS5003;50095;53.336;-1.488;2022-07-23T12:02:23;11;10;
61913;PMS5003;50095;53.336;-1.488;2022-07-23T12:04:52;9;9;
61913;PMS5003;50095;53.336;-1.488;2022-07-23T12:07:28;11;11;
61913;PMS5003;50095;53.336;-1.488;2022-07-23T12:09:58;11;9;
61913;PMS5003;50095;53.336;-1.488;2022-07-23T12:12:33;13;12;
61913;PMS5003;50095;53.336;-1.488;2022-07-23T12:15:02;9;9;
61913;PMS5003;50095;53.336;-1.488;2022-07-23T12:17:32;10;10;
61913;PMS5003;50095;53.336;-1.488;2022-07-23T12:20:03;9;9;
61913;PMS5003;50095;53.336;-1.488;2022-07-23T12:22:35;10;10;
61913;PMS5003;50095;53.336;-1.488;2022-07-23T12:25:05;9;9;
61913;PMS5003;50095;53.336;-1.488;2022-07-23T12:27:35;10;9;
61913;PMS5003;50095;53.336;-1.488;2022-07-23T12:30:19;7;7;
61913;PMS5003;50095;53.336;-1.488;2022-07-23T12:32:50;9;9;
61913;PMS5003;50095;53.336;-1.488;2022-07-23T12:35:19;11;9;
61913;PMS5003;50095;53.336;-1.488;2022-07-23T12:37:48;7;7;
61913;PMS5003;50095;53.336;-1.488;2022-07-23T12:40:18;7;6;
61913;PMS5003;50095;53.336;-1.488;2022-07-23T12:42:47;8;8;
61913;PMS5003;50095;53.336;-1.488;2022-07-23T12:45:16;8;8;
61913;PMS5003;50095;53.336;-1.488;2022-07-23T12:47:52;7;7;
61913;PMS5003;50095;53.336;-1.488;2022-07-23T12:50:38;10;9;
61913;PMS5003;50095;53.336;-1.488;2022-07-23T12:53:09;9;8;
61913;PMS5003;50095;53.336;-1.488;2022-07-23T12:55:39;7;7;
61913;PMS5003;50095;53.336;-1.488;2022-07-23T12:58:09;10;7;
61913;PMS5003;50095;53.336;-1.488;2022-07-23T13:01:21;8;8;
61913;PMS5003;50095;53.336;-1.488;2022-07-23T13:03:59;7;7;
61913;PMS5003;50095;53.336;-1.488;2022-07-23T13:06:29;7;7;
61913;PMS5003;50095;53.336;-1.488;2022-07-23T13:08:58;6;6;
61913;PMS5003;50095;53.336;-1.488;2022-07-23T13:11:25;7;7;
61913;PMS5003;50095;53.336;-1.488;2022-07-23T13:13:52;6;6;
61913;PMS5003;50095;53.336;-1.488;2022-07-23T13:16:20;9;8;
61913;PMS5003;50095;53.336;-1.488;2022-07-23T13:18:48;5;4;
61913;PMS5003;50095;53.336;-1.488;2022-07-23T13:21:15;7;7;
61913;PMS5003;50095;53.336;-1.488;2022-07-23T13:23:43;8;8;
61913;PMS5003;50095;53.336;-1.488;2022-07-23T13:26:10;8;8;
61913;PMS5003;50095;53.336;-1.488;2022-07-23T13:28:38;4;4;
61913;PMS5003;50095;53.336;-1.488;2022-07-23T13:31:06;6;6;
61913;PMS5003;50095;53.336;-1.488;2022-07-23T13:33:33;6;6;
61913;PMS5003;50095;53.336;-1.488;2022-07-23T13:36:01;5;5;
61913;PMS5003;50095;53.336;-1.488;2022-07-23T13:38:30;9;9;
61913;PMS5003;50095;53.336;-1.488;2022-07-23T13:40:56;5;5;
61913;PMS5003;50095;53.336;-1.488;2022-07-23T13:43:25;5;4;
61913;PMS5003;50095;53.336;-1.488;2022-07-23T13:45:53;5;5;
61913;PMS5003;50095;53.336;-1.488;2022-07-23T13:48:20;4;4;
61913;PMS5003;50095;53.336;-1.488;2022-07-23T13:50:49;6;6;
61913;PMS5003;50095;53.336;-1.488;2022-07-23T13:53:17;8;6;
61913;PMS5003;50095;53.336;-1.488;2022-07-23T13:55:46;6;6;
61913;PMS5003;50095;53.336;-1.488;2022-07-23T13:58:15;5;5;
61913;PMS5003;50095;53.336;-1.488;2022-07-23T14:00:44;6;6;
61913;PMS5003;50095;53.336;-1.488;2022-07-23T14:03:13;6;6;
61913;PMS5003;50095;53.336;-1.488;2022-07-23T14:05:41;5;5;
61913;PMS5003;50095;53.336;-1.488;2022-07-23T14:08:08;5;5;
61913;PMS5003;50095;53.336;-1.488;2022-07-23T14:10:36;6;6;
61913;PMS5003;50095;53.336;-1.488;2022-07-23T14:13:03;3;3;
61913;PMS5003;50095;53.336;-1.488;2022-07-23T14:15:31;6;5;
61913;PMS5003;50095;53.336;-1.488;2022-07-23T14:17:59;5;5;
61913;PMS5003;50095;53.336;-1.488;2022-07-23T14:20:26;6;5;
61913;PMS5003;50095;53.336;-1.488;2022-07-23T14:22:53;6;6;
61913;PMS5003;50095;53.336;-1.488;2022-07-23T14:25:21;5;5;
61913;PMS5003;50095;53.336;-1.488;2022-07-23T14:27:48;6;5;
61913;PMS5003;50095;53.336;-1.488;2022-07-23T14:30:16;6;6;
61913;PMS5003;50095;53.336;-1.488;2022-07-23T14:32:43;8;7;
61913;PMS5003;50095;53.336;-1.488;2022-07-23T14:35:11;6;6;
61913;PMS5003;50095;53.336;-1.488;2022-07-23T14:37:39;5;5;
61913;PMS5003;50095;53.336;-1.488;2022-07-23T14:40:06;7;7;
61913;PMS5003;50095;53.336;-1.488;2022-07-23T14:42:34;7;7;
61913;PMS5003;50095;53.336;-1.488;2022-07-23T14:45:02;7;7;
61913;PMS5003;50095;53.336;-1.488;2022-07-23T14:47:31;8;8;
61913;PMS5003;50095;53.336;-1.488;2022-07-23T14:49:58;6;5;
61913;PMS5003;50095;53.336;-1.488;2022-07-23T14:52:25;7;6;
61913;PMS5003;50095;53.336;-1.488;2022-07-23T14:54:53;7;7;
61913;PMS5003;50095;53.336;-1.488;2022-07-23T14:57:20;5;5;
61913;PMS5003;50095;53.336;-1.488;2022-07-23T14:59:48;7;6;
61913;PMS5003;50095;53.336;-1.488;2022-07-23T15:02:15;9;9;
61913;PMS5003;50095;53.336;-1.488;2022-07-23T15:04:42;6;6;
61913;PMS5003;50095;53.336;-1.488;2022-07-23T15:07:10;7;7;
61913;PMS5003;50095;53.336;-1.488;2022-07-23T15:09:37;8;6;
61913;PMS5003;50095;53.336;-1.488;2022-07-23T15:12:05;7;7;
61913;PMS5003;50095;53.336;-1.488;2022-07-23T15:14:32;8;8;
61913;PMS5003;50095;53.336;-1.488;2022-07-23T15:17:00;10;8;
61913;PMS5003;50095;53.336;-1.488;2022-07-23T15:19:27;9;8;
61913;PMS5003;50095;53.336;-1.488;2022-07-23T15:21:55;8;8;
61913;PMS5003;50095;53.336;-1.488;2022-07-23T15:24:22;9;8;
61913;PMS5003;50095;53.336;-1.488;2022-07-23T15:26:50;7;7;
61913;PMS5003;50095;53.336;-1.488;2022-07-23T15:29:17;6;6;
61913;PMS5003;50095;53.336;-1.488;2022-07-23T15:31:45;8;8;
61913;PMS5003;50095;53.336;-1.488;2022-07-23T15:34:12;9;9;
61913;PMS5003;50095;53.336;-1.488;2022-07-23T15:36:40;10;8;
61913;PMS5003;50095;53.336;-1.488;2022-07-23T15:39:08;6;6;
61913;PMS5003;50095;53.336;-1.488;2022-07-23T15:41:35;10;8;
61913;PMS5003;50095;53.336;-1.488;2022-07-23T15:44:03;8;8;
61913;PMS5003;50095;53.336;-1.488;2022-07-23T15:46:31;7;6;
61913;PMS5003;50095;53.336;-1.488;2022-07-23T15:48:58;9;9;
61913;PMS5003;50095;53.336;-1.488;2022-07-23T15:51:26;8;6;
61913;PMS5003;50095;53.336;-1.488;2022-07-23T15:53:53;9;7;
61913;PMS5003;50095;53.336;-1.488;2022-07-23T15:56:21;8;8;
61913;PMS5003;50095;53.336;-1.488;2022-07-23T15:58:48;7;7;
61913;PMS5003;50095;53.336;-1.488;2022-07-23T16:01:16;11;9;
61913;PMS5003;50095;53.336;-1.488;2022-07-23T16:03:44;9;8;
61913;PMS5003;50095;53.336;-1.488;2022-07-23T16:06:12;7;7;
61913;PMS5003;50095;53.336;-1.488;2022-07-23T16:08:39;9;8;
61913;PMS5003;50095;53.336;-1.488;2022-07-23T16:11:06;9;8;
61913;PMS5003;50095;53.336;-1.488;2022-07-23T16:13:34;7;7;
61913;PMS5003;50095;53.336;-1.488;2022-07-23T16:16:01;7;7;
61913;PMS5003;50095;53.336;-1.488;2022-07-23T16:18:29;8;8;
61913;PMS5003;50095;53.336;-1.488;2022-07-23T16:20:56;7;7;
61913;PMS5003;50095;53.336;-1.488;2022-07-23T16:23:24;9;9;
61913;PMS5003;50095;53.336;-1.488;2022-07-23T16:25:51;8;8;
61913;PMS5003;50095;53.336;-1.488;2022-07-23T16:28:18;9;9;
61913;PMS5003;50095;53.336;-1.488;2022-07-23T16:30:46;9;9;
61913;PMS5003;50095;53.336;-1.488;2022-07-23T16:33:13;8;8;
61913;PMS5003;50095;53.336;-1.488;2022-07-23T16:35:40;6;6;